createdAt,value
2018-06-21T00:01:58.748Z,8.27
2018-06-21T00:04:27.672Z,7.07
2018-06-21T00:06:56.730Z,7.57
2018-06-21T00:09:25.644Z,7.87
2018-06-21T00:11:54.697Z,8.27
2018-06-21T00:14:24.752Z,7.73
2018-06-21T00:16:55.078Z,7.43
2018-06-21T00:19:25.429Z,7.60
2018-06-21T00:21:56.250Z,7.93
2018-06-21T00:24:25.159Z,7.03
2018-06-21T00:26:54.042Z,7.80
2018-06-21T00:29:24.728Z,6.93
2018-06-21T00:31:53.451Z,7.87
2018-06-21T00:34:22.871Z,7.77
2018-06-21T00:36:52.155Z,7.50
2018-06-21T00:39:21.072Z,8.37
2018-06-21T00:41:51.634Z,8.43
2018-06-21T00:44:20.568Z,8.30
2018-06-21T00:46:51.827Z,8.40
2018-06-21T00:49:22.248Z,8.17
2018-06-21T00:51:51.288Z,7.33
2018-06-21T00:54:20.188Z,7.67
2018-06-21T00:56:50.868Z,7.70
2018-06-21T00:59:19.547Z,7.50
2018-06-21T01:01:48.779Z,8.30
2018-06-21T01:04:18.563Z,7.47
2018-06-21T01:06:47.519Z,7.90
2018-06-21T01:09:18.091Z,7.90
2018-06-21T01:11:47.118Z,7.57
2018-06-21T01:14:16.232Z,7.93
2018-06-21T01:16:46.496Z,7.70
2018-06-21T01:19:16.819Z,7.80
2018-06-21T01:21:45.751Z,8.40
2018-06-21T01:24:14.783Z,7.97
2018-06-21T01:26:45.316Z,8.97
2018-06-21T01:29:14.242Z,6.90
2018-06-21T01:31:43.151Z,8.30
2018-06-21T01:34:12.184Z,8.93
2018-06-21T01:36:41.420Z,8.40
2018-06-21T01:39:10.969Z,7.83
2018-06-21T01:41:40.116Z,8.10
2018-06-21T01:44:09.264Z,9.20
2018-06-21T01:46:39.961Z,9.87
2018-06-21T01:49:10.275Z,10.70
2018-06-21T01:51:40.942Z,9.30
2018-06-21T01:54:10.355Z,9.17
2018-06-21T01:56:41.062Z,9.13
2018-06-21T01:59:10.099Z,8.67
2018-06-21T02:01:39.031Z,9.00
2018-06-21T02:04:08.494Z,9.03
2018-06-21T02:08:06.796Z,9.40
2018-06-21T02:10:37.479Z,9.60
2018-06-21T02:13:06.571Z,9.50
2018-06-21T02:15:36.979Z,10.20
2018-06-21T02:18:06.132Z,10.30
2018-06-21T02:20:35.199Z,9.77
2018-06-21T02:23:04.284Z,10.50
2018-06-21T02:25:34.923Z,10.50
2018-06-21T02:28:03.968Z,10.30
2018-06-21T02:30:32.890Z,10.10
2018-06-21T02:33:02.287Z,10.17
2018-06-21T02:35:31.436Z,10.47
2018-06-21T02:38:00.376Z,10.47
2018-06-21T02:40:29.799Z,10.17
2018-06-21T02:42:58.723Z,10.37
2018-06-21T02:45:27.739Z,11.07
2018-06-21T02:47:58.123Z,9.77
2018-06-21T02:50:28.529Z,9.70
2018-06-21T02:52:57.827Z,10.70
2018-06-21T02:55:26.777Z,11.10
2018-06-21T02:57:57.185Z,9.63
2018-06-21T03:00:26.105Z,10.93
2018-06-21T03:02:55.372Z,9.90
2018-06-21T03:05:24.395Z,10.90
2018-06-21T03:07:53.320Z,10.17
2018-06-21T03:10:23.788Z,10.20
2018-06-21T03:12:54.428Z,9.90
2018-06-21T03:15:24.951Z,12.07
2018-06-21T03:17:53.907Z,10.40
2018-06-21T03:20:22.927Z,10.10
2018-06-21T03:22:53.343Z,11.10
2018-06-21T03:25:22.283Z,9.70
2018-06-21T03:27:51.211Z,9.27
2018-06-21T03:30:20.263Z,9.30
2018-06-21T03:32:49.212Z,9.50
2018-06-21T03:35:18.469Z,8.63
2018-06-21T03:37:47.832Z,8.97
2018-06-21T03:40:16.820Z,9.30
2018-06-21T03:42:45.748Z,10.30
2018-06-21T03:45:15.219Z,9.40
2018-06-21T03:47:45.467Z,9.97
2018-06-21T03:50:18.543Z,9.00
2018-06-21T03:52:47.467Z,9.33
2018-06-21T03:55:16.416Z,8.70
2018-06-21T03:57:47.056Z,8.47
2018-06-21T04:00:16.116Z,8.93
2018-06-21T04:02:45.031Z,9.87
2018-06-21T04:05:14.416Z,9.47
2018-06-21T04:07:43.330Z,8.70
2018-06-21T04:10:14.643Z,9.20
2018-06-21T04:12:43.579Z,8.00
2018-06-21T04:15:14.228Z,8.23
2018-06-21T04:17:43.127Z,8.83
2018-06-21T04:20:14.143Z,8.20
2018-06-21T04:22:43.067Z,8.97
2018-06-21T04:25:11.999Z,8.27
2018-06-21T04:27:41.337Z,8.07
2018-06-21T04:30:10.615Z,8.57
2018-06-21T04:32:39.548Z,9.63
2018-06-21T04:35:08.835Z,8.30
2018-06-21T04:37:39.763Z,8.20
2018-06-21T04:40:09.016Z,9.00
2018-06-21T04:42:38.129Z,9.30
2018-06-21T04:45:07.372Z,9.43
2018-06-21T04:47:38.303Z,8.30
2018-06-21T04:52:43.431Z,8.07
2018-06-21T04:55:12.858Z,8.23
2018-06-21T04:57:43.699Z,9.60
2018-06-21T05:00:12.368Z,8.40
2018-06-21T05:02:41.145Z,7.60
2018-06-21T05:05:10.602Z,8.30
2018-06-21T05:07:41.639Z,8.30
2018-06-21T05:10:12.691Z,8.33
2018-06-21T05:12:41.616Z,8.27
2018-06-21T05:15:15.023Z,7.80
2018-06-21T05:17:45.798Z,8.27
2018-06-21T05:20:14.475Z,8.47
2018-06-21T05:22:43.319Z,8.60
2018-06-21T05:25:12.358Z,8.23
2018-06-21T05:27:41.323Z,8.80
2018-06-21T05:30:10.231Z,7.80
2018-06-21T05:32:39.629Z,8.23
2018-06-21T05:35:08.715Z,7.53
2018-06-21T05:37:40.014Z,8.00
2018-06-21T05:40:19.344Z,8.40
2018-06-21T05:42:48.023Z,8.70
2018-06-21T05:45:16.785Z,7.27
2018-06-21T05:47:49.106Z,6.63
2018-06-21T05:50:21.280Z,8.20
2018-06-21T05:52:50.208Z,8.67
2018-06-21T05:55:19.510Z,7.57
2018-06-21T05:57:50.551Z,8.40
2018-06-21T06:00:19.427Z,7.90
2018-06-21T06:02:48.327Z,8.07
2018-06-21T06:05:19.891Z,7.53
2018-06-21T06:07:48.787Z,8.97
2018-06-21T06:10:19.254Z,8.20
2018-06-21T06:12:48.184Z,7.80
2018-06-21T06:15:19.279Z,8.27
2018-06-21T06:17:48.214Z,8.37
2018-06-21T06:20:17.153Z,8.37
2018-06-21T06:22:46.384Z,7.60
2018-06-21T06:25:15.360Z,8.23
2018-06-21T06:27:44.596Z,8.10
2018-06-21T06:30:13.528Z,8.87
2018-06-21T06:32:42.692Z,8.60
2018-06-21T06:35:11.655Z,8.23
2018-06-21T06:37:42.134Z,8.60
2018-06-21T06:40:11.234Z,8.80
2018-06-21T06:42:40.536Z,8.00
2018-06-21T06:45:09.427Z,8.43
2018-06-21T06:47:39.568Z,7.60
2018-06-21T06:50:17.658Z,8.27
2018-06-21T06:52:46.871Z,8.30
2018-06-21T06:55:15.781Z,8.40
2018-06-21T06:57:46.023Z,9.77
2018-06-21T07:00:14.571Z,8.90
2018-06-21T07:02:44.911Z,8.63
2018-06-21T07:05:13.884Z,9.43
2018-06-21T07:07:43.527Z,8.33
2018-06-21T07:10:14.028Z,9.33
2018-06-21T07:12:44.659Z,9.00
2018-06-21T07:15:15.320Z,9.13
2018-06-21T07:17:44.438Z,7.90
2018-06-21T07:20:13.408Z,8.37
2018-06-21T07:22:42.444Z,7.50
2018-06-21T07:25:11.396Z,8.43
2018-06-21T07:27:40.861Z,7.23
2018-06-21T07:30:09.739Z,7.80
2018-06-21T07:32:38.756Z,7.30
2018-06-21T07:35:07.715Z,7.70
2018-06-21T07:37:38.218Z,7.53
2018-06-21T07:40:07.164Z,5.40
2018-06-21T07:42:36.410Z,6.00
2018-06-21T07:45:05.358Z,4.97
2018-06-21T07:47:36.034Z,5.10
2018-06-21T07:50:04.939Z,6.13
2018-06-21T07:52:35.253Z,5.40
2018-06-21T07:55:04.161Z,5.23
2018-06-21T07:57:34.464Z,6.00
2018-06-21T08:00:05.340Z,5.77
2018-06-21T08:02:34.562Z,5.40
2018-06-21T08:05:03.482Z,4.60
2018-06-21T08:07:32.531Z,5.40
2018-06-21T08:10:03.082Z,5.50
2018-06-21T08:12:32.074Z,5.27
2018-06-21T08:15:00.969Z,5.27
2018-06-21T08:17:31.235Z,5.70
2018-06-21T08:20:00.184Z,4.30
2018-06-21T08:22:29.048Z,5.33
2018-06-21T08:24:58.028Z,4.67
2018-06-21T08:27:27.420Z,5.13
2018-06-21T08:29:56.103Z,5.03
2018-06-21T08:32:24.880Z,5.50
2018-06-21T08:34:54.190Z,5.17
2018-06-21T08:37:24.405Z,4.70
2018-06-21T08:39:53.503Z,5.00
2018-06-21T08:42:22.413Z,5.57
2018-06-21T08:44:51.379Z,4.13
2018-06-21T08:47:22.335Z,4.20
2018-06-21T08:49:51.439Z,4.20
2018-06-21T08:52:22.072Z,3.97
2018-06-21T08:54:50.975Z,4.33
2018-06-21T08:57:21.750Z,4.40
2018-06-21T08:59:50.984Z,4.40
2018-06-21T09:02:19.903Z,4.00
2018-06-21T09:04:49.185Z,3.50
2018-06-21T09:07:20.111Z,4.10
2018-06-21T09:09:50.586Z,3.90
2018-06-21T09:12:19.615Z,3.70
2018-06-21T09:14:49.079Z,3.17
2018-06-21T09:17:19.467Z,3.33
2018-06-21T09:19:48.403Z,3.70
2018-06-21T09:22:17.337Z,3.20
2018-06-21T09:24:46.627Z,3.50
2018-06-21T09:27:15.559Z,4.73
2018-06-21T09:29:44.576Z,4.60
2018-06-21T09:32:13.484Z,3.47
2018-06-21T09:34:42.644Z,4.27
2018-06-21T09:37:13.180Z,3.57
2018-06-21T10:57:22.726Z,4.70
2018-06-21T10:59:51.732Z,3.63
2018-06-21T11:02:22.088Z,3.90
2018-06-21T11:04:51.096Z,3.13
2018-06-21T11:07:20.031Z,2.80
2018-06-21T11:09:50.395Z,2.50
2018-06-21T11:12:19.407Z,3.10
2018-06-21T11:14:48.481Z,3.17
2018-06-21T11:17:19.137Z,2.63
2018-06-21T11:19:48.147Z,3.30
2018-06-21T11:22:17.055Z,3.40
2018-06-21T11:24:46.409Z,4.10
2018-06-21T11:27:15.361Z,3.00
2018-06-21T11:29:44.260Z,4.50
2018-06-21T11:32:13.583Z,3.53
2018-06-21T11:34:42.495Z,3.40
2018-06-21T11:37:13.828Z,3.57
2018-06-21T11:39:42.767Z,3.20
2018-06-21T11:42:12.118Z,3.90
2018-06-21T11:44:40.812Z,4.10
2018-06-21T11:47:11.159Z,3.67
2018-06-21T11:49:41.563Z,4.27
2018-06-21T11:52:11.593Z,4.23
2018-06-21T11:54:40.344Z,4.00
2018-06-21T11:57:10.866Z,4.87
2018-06-21T11:59:47.886Z,4.10
2018-06-21T12:02:17.083Z,4.40
2018-06-21T12:04:45.867Z,3.33
2018-06-21T12:07:15.208Z,3.70
2018-06-21T12:09:45.711Z,3.70
2018-06-21T12:12:14.866Z,3.43
2018-06-21T12:14:43.735Z,3.47
2018-06-21T12:17:14.839Z,3.93
2018-06-21T12:19:43.795Z,3.47
2018-06-21T12:22:12.852Z,3.90
2018-06-21T12:24:41.963Z,4.33
2018-06-21T12:27:11.541Z,3.70
2018-06-21T12:29:40.456Z,3.57
2018-06-21T12:32:09.494Z,2.63
2018-06-21T12:34:38.443Z,3.20
2018-06-21T12:37:08.963Z,2.43
2018-06-21T12:39:37.957Z,2.13
2018-06-21T12:42:06.971Z,2.03
2018-06-21T12:44:36.074Z,1.90
2018-06-21T12:47:06.636Z,1.47
2018-06-21T12:49:35.628Z,1.33
2018-06-21T12:52:06.420Z,1.80
2018-06-21T12:54:35.449Z,3.13
2018-06-21T12:57:06.320Z,1.50
2018-06-21T12:59:36.554Z,2.13
2018-06-21T13:02:05.673Z,1.90
2018-06-21T13:04:34.592Z,2.17
2018-06-21T13:07:03.903Z,1.90
2018-06-21T13:10:48.208Z,1.73
2018-06-21T13:13:18.177Z,1.70
2018-06-21T13:15:48.952Z,1.80
2018-06-21T13:18:17.890Z,1.53
2018-06-21T13:20:46.828Z,1.90
2018-06-21T13:23:16.108Z,2.30
2018-06-21T13:25:45.130Z,1.63
2018-06-21T13:28:13.813Z,1.97
2018-06-21T13:30:42.724Z,2.63
2018-06-21T13:33:12.249Z,1.87
2018-06-21T13:35:41.648Z,1.93
2018-06-21T13:38:12.461Z,1.60
2018-06-21T13:40:41.368Z,1.53
2018-06-21T13:43:10.671Z,1.90
2018-06-21T13:45:41.304Z,1.90
2018-06-21T13:48:11.979Z,1.87
2018-06-21T13:50:42.420Z,1.70
2018-06-21T13:53:11.503Z,1.80
2018-06-21T13:55:42.179Z,2.40
2018-06-21T13:58:12.500Z,4.53
2018-06-21T14:00:41.412Z,2.10
2018-06-21T14:03:10.900Z,2.70
2018-06-21T14:05:39.810Z,3.10
2018-06-21T14:08:08.858Z,3.03
2018-06-21T14:10:39.410Z,2.70
2018-06-21T14:13:08.363Z,3.30
2018-06-21T14:15:39.003Z,3.00
2018-06-21T14:18:08.009Z,2.87
2018-06-21T14:20:37.013Z,3.13
2018-06-21T14:23:06.152Z,3.23
2018-06-21T14:25:35.063Z,3.70
2018-06-21T14:28:04.060Z,4.00
2018-06-21T14:30:32.979Z,3.23
2018-06-21T14:33:02.504Z,4.13
2018-06-21T14:35:31.444Z,4.00
2018-06-21T14:38:01.745Z,4.00
2018-06-21T14:40:30.692Z,4.23
2018-06-21T14:43:00.949Z,3.90
2018-06-21T14:45:29.643Z,3.97
2018-06-21T14:47:59.794Z,3.57
2018-06-21T14:50:30.488Z,3.17
2018-06-21T14:53:01.019Z,3.30
2018-06-21T14:55:29.999Z,3.40
2018-06-21T14:58:00.336Z,3.23
2018-06-21T15:00:29.340Z,3.13
2018-06-21T15:02:58.549Z,2.80
2018-06-21T15:05:27.964Z,3.13
2018-06-21T15:07:56.920Z,2.97
2018-06-21T15:10:27.574Z,3.07
2018-06-21T15:12:57.030Z,2.57
2018-06-21T15:15:27.296Z,2.60
2018-06-21T15:17:56.161Z,2.27
2018-06-21T15:20:24.985Z,2.80
2018-06-21T15:22:54.311Z,2.80
2018-06-21T15:25:23.600Z,2.80
2018-06-21T15:27:53.028Z,2.77
2018-06-21T15:30:22.036Z,3.20
2018-06-21T15:32:51.278Z,2.90
2018-06-21T15:35:20.216Z,3.13
2018-06-21T15:37:50.904Z,3.70
2018-06-21T15:40:21.369Z,3.37
2018-06-21T15:42:50.385Z,4.00
2018-06-21T15:45:19.314Z,3.67
2018-06-21T15:47:49.946Z,3.80
2018-06-21T15:50:23.596Z,4.30
2018-06-21T15:52:52.653Z,4.37
2018-06-21T15:55:21.705Z,4.70
2018-06-21T15:57:52.792Z,4.90
2018-06-21T16:00:21.723Z,6.47
2018-06-21T16:02:50.993Z,5.13
2018-06-21T16:05:19.687Z,6.10
2018-06-21T16:07:49.075Z,5.73
2018-06-21T16:10:20.033Z,5.23
2018-06-21T16:12:48.940Z,6.10
2018-06-21T16:15:19.882Z,6.10
2018-06-21T16:17:48.840Z,6.07
2018-06-21T16:20:17.843Z,6.13
2018-06-21T16:22:47.159Z,5.77
2018-06-21T16:25:16.190Z,6.43
2018-06-21T16:27:45.324Z,5.40
2018-06-21T16:30:14.014Z,5.30
2018-06-21T16:32:42.868Z,5.83
2018-06-21T16:35:12.422Z,5.90
2018-06-21T16:37:42.847Z,5.83
2018-06-21T16:40:11.916Z,6.83
2018-06-21T16:42:41.023Z,5.53
2018-06-21T16:45:10.178Z,6.03
2018-06-21T16:50:20.917Z,5.23
2018-06-21T16:52:50.143Z,4.10
2018-06-21T16:55:19.232Z,4.03
2018-06-21T16:57:50.552Z,3.90
2018-06-21T17:00:19.856Z,4.60
2018-06-21T17:02:48.863Z,3.87
2018-06-21T17:05:17.788Z,4.20
2018-06-21T17:07:47.148Z,3.73
2018-06-21T17:10:17.583Z,4.10
2018-06-21T17:12:46.530Z,4.27
2018-06-21T17:15:18.125Z,3.33
2018-06-21T17:17:47.044Z,3.97
2018-06-21T17:20:16.456Z,2.70
2018-06-21T17:22:45.375Z,3.33
2018-06-21T17:26:43.614Z,2.90
2018-06-21T17:29:12.663Z,2.80
2018-06-21T17:31:41.577Z,2.67
2018-06-21T17:34:12.222Z,2.80
2018-06-21T17:36:41.783Z,4.20
2018-06-21T17:39:12.460Z,2.27
2018-06-21T17:41:41.383Z,2.90
2018-06-21T17:44:10.417Z,3.00
2018-06-21T17:46:41.129Z,4.53
2018-06-21T17:49:11.817Z,2.90
2018-06-21T17:51:42.339Z,2.53
2018-06-21T17:54:11.123Z,2.33
2018-06-21T17:59:15.896Z,2.03
2018-06-21T18:01:44.760Z,3.07
2018-06-21T18:04:14.015Z,2.13
2018-06-21T18:06:42.980Z,2.13
2018-06-21T18:09:13.592Z,1.90
2018-06-21T18:11:42.511Z,2.40
2018-06-21T18:14:11.532Z,2.40
2018-06-21T18:16:42.032Z,1.80
2018-06-21T18:19:11.051Z,2.10
2018-06-21T18:21:40.143Z,2.30
2018-06-21T18:24:09.407Z,2.33
2018-06-21T18:26:38.335Z,2.17
2018-06-21T18:29:07.499Z,2.13
2018-06-21T18:31:38.448Z,1.97
2018-06-21T18:34:07.467Z,2.13
2018-06-21T18:36:36.386Z,2.17
2018-06-21T18:39:08.396Z,1.80
2018-06-21T18:41:37.072Z,1.90
2018-06-21T18:44:07.212Z,1.80
2018-06-21T18:46:37.521Z,1.80
2018-06-21T18:49:07.770Z,1.93
2018-06-21T18:51:38.379Z,1.90
2018-06-21T18:54:07.086Z,1.97
2018-06-21T18:56:35.986Z,2.10
2018-06-21T18:59:06.150Z,1.60
2018-06-21T19:01:35.369Z,1.80
2018-06-21T19:04:04.429Z,1.80
2018-06-21T19:06:40.119Z,1.47
2018-06-21T19:09:17.140Z,1.60
2018-06-21T19:11:51.424Z,1.80
2018-06-21T19:14:20.404Z,1.70
2018-06-21T19:16:51.035Z,2.27
2018-06-21T19:19:20.152Z,1.90
2018-06-21T19:21:49.069Z,2.27
2018-06-21T19:24:18.047Z,1.73
2018-06-21T19:26:47.439Z,1.60
2018-06-21T19:29:17.558Z,1.53
2018-06-21T19:31:46.633Z,2.23
2018-06-21T19:34:15.792Z,1.80
2018-06-21T19:36:45.162Z,1.40
2018-06-21T19:39:16.399Z,1.40
2018-06-21T19:41:46.443Z,1.40
2018-06-21T19:44:15.007Z,2.00
2018-06-21T19:46:45.749Z,1.40
2018-06-21T19:49:16.344Z,1.60
2018-06-21T19:51:48.758Z,1.40
2018-06-21T19:54:17.604Z,1.70
2018-06-21T19:56:56.424Z,1.63
2018-06-21T19:59:25.338Z,1.50
2018-06-21T20:01:54.304Z,1.70
2018-06-21T20:04:23.457Z,1.73
2018-06-21T20:06:52.355Z,1.77
2018-06-21T20:09:23.267Z,1.80
2018-06-21T20:11:52.179Z,2.20
2018-06-21T20:14:21.076Z,2.07
2018-06-21T20:16:52.104Z,1.50
2018-06-21T20:19:21.035Z,1.90
2018-06-21T20:21:50.300Z,2.17
2018-06-21T20:24:18.972Z,1.70
2018-06-21T20:26:49.523Z,1.63
2018-06-21T20:29:19.972Z,1.20
2018-06-21T20:31:48.907Z,2.07
2018-06-21T20:34:17.936Z,1.57
2018-06-21T20:36:46.884Z,1.33
2018-06-21T20:39:17.313Z,1.33
2018-06-21T20:41:46.755Z,1.47
2018-06-21T20:44:15.727Z,1.83
2018-06-21T20:46:46.386Z,1.80
2018-06-21T20:49:16.813Z,1.60
2018-06-21T20:51:47.340Z,1.47
2018-06-21T20:54:16.250Z,1.40
2018-06-21T20:56:45.298Z,1.50
2018-06-21T20:59:15.593Z,1.27
2018-06-21T21:01:44.507Z,1.00
2018-06-21T21:04:14.343Z,1.47
2018-06-21T21:06:43.368Z,1.50
2018-06-21T21:09:14.281Z,1.20
2018-06-21T21:11:43.313Z,1.77
2018-06-21T21:14:12.262Z,1.73
2018-06-21T21:16:42.749Z,1.47
2018-06-21T21:19:11.551Z,1.37
2018-06-21T21:21:40.556Z,1.00
2018-06-21T21:24:11.017Z,1.10
2018-06-21T21:26:40.052Z,1.13
2018-06-21T21:29:08.972Z,1.80
2018-06-21T21:31:38.485Z,1.10
2018-06-21T21:34:07.441Z,1.23
2018-06-21T21:36:37.607Z,1.50
2018-06-21T21:39:08.556Z,1.40
2018-06-21T21:41:37.591Z,1.00
2018-06-21T21:44:07.799Z,1.40
2018-06-21T21:46:38.387Z,2.60
2018-06-21T21:49:09.059Z,1.43
2018-06-21T21:51:39.476Z,0.87
2018-06-21T21:54:08.364Z,1.60
2018-06-21T21:56:37.284Z,1.37
2018-06-21T21:59:08.210Z,1.23
2018-06-21T22:01:37.241Z,1.10
2018-06-21T22:04:06.167Z,1.07
2018-06-21T22:06:35.955Z,1.00
2018-06-21T22:09:08.691Z,0.90
2018-06-21T22:11:38.201Z,1.30
2018-06-21T22:14:07.137Z,1.20
2018-06-21T22:16:38.724Z,1.20
2018-06-21T22:19:07.659Z,1.60
2018-06-21T22:21:38.154Z,0.93
2018-06-21T22:24:07.011Z,1.10
2018-06-21T22:26:37.005Z,0.80
2018-06-21T22:29:06.740Z,0.87
2018-06-21T22:31:36.733Z,1.27
2018-06-21T22:34:07.475Z,1.20
2018-06-21T22:36:36.812Z,0.80
2018-06-21T22:39:07.572Z,0.70
2018-06-21T22:41:36.690Z,0.80
2018-06-21T22:44:06.828Z,0.93
2018-06-21T22:46:37.842Z,1.10
2018-06-21T22:49:09.016Z,1.20
2018-06-21T22:51:39.751Z,1.00
2018-06-21T22:54:08.739Z,1.10
2018-06-21T22:56:37.999Z,1.13
2018-06-21T22:59:08.135Z,1.00
2018-06-21T23:01:37.080Z,0.90
2018-06-21T23:04:06.520Z,0.80
2018-06-21T23:06:35.199Z,0.83
2018-06-21T23:09:06.970Z,1.10
2018-06-21T23:11:36.023Z,1.20
2018-06-21T23:14:05.034Z,1.10
2018-06-21T23:16:35.705Z,0.90
2018-06-21T23:19:17.690Z,0.97
2018-06-21T23:21:46.615Z,1.00
2018-06-21T23:24:15.535Z,1.13
2018-06-21T23:26:44.612Z,1.20
2018-06-21T23:29:14.006Z,1.10
2018-06-21T23:31:45.641Z,1.00
2018-06-21T23:34:15.247Z,1.00
2018-06-21T23:36:44.180Z,1.10
2018-06-21T23:39:13.407Z,1.23
2018-06-21T23:41:42.991Z,1.00
2018-06-21T23:44:13.972Z,1.20
2018-06-21T23:46:45.115Z,0.90
2018-06-21T23:49:15.955Z,1.20
2018-06-21T23:51:46.687Z,1.20
2018-06-21T23:54:15.698Z,0.90
2018-06-21T23:56:45.025Z,0.90
2018-06-21T23:59:15.931Z,1.10
